createdAt,value
2019-05-02T06:50:54.595Z,23.37
2019-05-02T07:04:22.906Z,34.63
2019-05-02T07:07:31.395Z,30.87
2019-05-02T07:11:01.419Z,26.33
2019-05-02T08:02:30.954Z,25.40
2019-05-02T08:07:21.113Z,22.50
2019-05-02T08:39:41.696Z,24.93
2019-05-02T13:23:42.595Z,14.47
2019-05-02T14:57:37.235Z,13.03
2019-05-02T15:08:53.812Z,11.60
2019-05-02T15:38:52.591Z,13.30
2019-05-02T16:22:49.591Z,15.20
2019-05-02T16:26:08.725Z,11.67
2019-05-02T20:04:09.356Z,12.30
2019-05-02T20:42:13.960Z,10.00
2019-05-02T20:45:28.010Z,10.57
2019-05-02T20:48:23.769Z,10.70
2019-05-02T20:51:19.619Z,10.73
2019-05-02T20:54:09.087Z,10.40
2019-05-02T20:57:06.909Z,12.00
2019-05-02T21:00:28.723Z,10.43
2019-05-02T21:03:45.215Z,9.87
2019-05-02T21:07:06.515Z,11.33
2019-05-02T21:10:41.625Z,10.40
2019-05-02T21:14:12.685Z,10.23
2019-05-02T21:17:58.114Z,9.93
2019-05-02T21:20:12.960Z,10.13
2019-05-02T21:24:02.086Z,10.60
2019-05-02T21:27:11.563Z,10.73
2019-05-02T21:30:21.718Z,10.00
2019-05-02T21:33:42.540Z,10.40
2019-05-02T21:36:40.188Z,10.53
2019-05-02T21:39:27.921Z,10.10
2019-05-02T21:42:16.354Z,10.70
2019-05-02T21:45:10.470Z,10.43
2019-05-02T21:48:13.039Z,10.70
2019-05-02T21:51:04.397Z,10.23
2019-05-02T21:54:13.238Z,10.27
2019-05-02T21:57:16.150Z,11.37
2019-05-02T22:00:06.463Z,10.60
2019-05-02T22:03:05.400Z,10.73
2019-05-02T22:05:58.095Z,10.43
2019-05-02T22:08:43.089Z,10.47
2019-05-02T22:11:32.133Z,10.30
2019-05-02T22:14:18.843Z,10.67
2019-05-02T22:17:08.268Z,11.13
2019-05-02T22:20:02.432Z,10.73
2019-05-02T22:22:55.174Z,11.03
2019-05-02T22:25:39.591Z,11.20
2019-05-02T22:28:30.186Z,10.80
2019-05-02T22:31:26.702Z,11.10
2019-05-02T22:34:18.230Z,12.13
2019-05-02T22:37:12.479Z,10.70
2019-05-02T22:40:04.047Z,10.87
2019-05-02T22:42:52.361Z,11.17
2019-05-02T22:45:43.877Z,11.13
2019-05-02T22:48:31.869Z,11.03
2019-05-02T22:51:19.535Z,11.93
2019-05-02T22:54:23.332Z,10.80
2019-05-02T22:56:58.699Z,10.90
2019-05-02T22:59:46.319Z,10.60
2019-05-02T23:02:36.664Z,11.23
2019-05-02T23:05:32.116Z,11.13
2019-05-02T23:08:13.078Z,10.37
2019-05-02T23:11:06.327Z,10.53
2019-05-02T23:13:53.256Z,10.90
2019-05-02T23:16:42.677Z,10.77
2019-05-02T23:19:31.578Z,10.57
2019-05-02T23:22:18.680Z,10.47
2019-05-02T23:25:32.200Z,11.77
2019-05-02T23:28:24.232Z,10.50
2019-05-02T23:31:14.113Z,10.57
2019-05-02T23:34:07.300Z,10.60
2019-05-02T23:37:35.140Z,10.57
2019-05-02T23:40:19.998Z,10.50
2019-05-02T23:43:06.719Z,10.43
2019-05-02T23:45:55.935Z,10.70
2019-05-02T23:48:42.749Z,10.43
2019-05-02T23:51:32.048Z,10.80
2019-05-02T23:54:19.111Z,10.43
2019-05-02T23:57:07.298Z,10.60
2019-05-02T23:59:54.870Z,11.50
